sensor_id;sensor_type;location;lat;lon;timestamp;temperature;humidity
17639;DHT22;8938;53.546;9.954;2022-11-20T00:01:18;6.60;99.90
17639;DHT22;8938;53.546;9.954;2022-11-20T00:03:45;6.60;99.90
17639;DHT22;8938;53.546;9.954;2022-11-20T00:06:16;6.60;99.90
17639;DHT22;8938;53.546;9.954;2022-11-20T00:08:43;6.60;99.90
17639;DHT22;8938;53.546;9.954;2022-11-20T00:11:11;6.60;99.90
17639;DHT22;8938;53.546;9.954;2022-11-20T00:13:37;6.70;99.90
17639;DHT22;8938;53.546;9.954;2022-11-20T00:16:05;6.70;99.90
17639;DHT22;8938;53.546;9.954;2022-11-20T00:18:32;6.70;99.90
17639;DHT22;8938;53.546;9.954;2022-11-20T00:21:03;6.70;99.90
17639;DHT22;8938;53.546;9.954;2022-11-20T00:23:30;6.70;99.90
17639;DHT22;8938;53.546;9.954;2022-11-20T00:25:55;6.80;99.90
17639;DHT22;8938;53.546;9.954;2022-11-20T00:28:21;6.70;99.90
17639;DHT22;8938;53.546;9.954;2022-11-20T00:30:46;6.70;99.90
17639;DHT22;8938;53.546;9.954;2022-11-20T00:33:12;6.60;99.90
17639;DHT22;8938;53.546;9.954;2022-11-20T00:35:37;6.60;99.90
17639;DHT22;8938;53.546;9.954;2022-11-20T00:38:03;6.70;99.90
17639;DHT22;8938;53.546;9.954;2022-11-20T00:40:28;6.70;99.90
17639;DHT22;8938;53.546;9.954;2022-11-20T00:42:54;6.80;99.90
17639;DHT22;8938;53.546;9.954;2022-11-20T00:45:19;6.80;99.90
17639;DHT22;8938;53.546;9.954;2022-11-20T00:47:45;6.80;99.90
17639;DHT22;8938;53.546;9.954;2022-11-20T00:50:10;6.80;99.90
17639;DHT22;8938;53.546;9.954;2022-11-20T00:52:36;6.70;99.90
17639;DHT22;8938;53.546;9.954;2022-11-20T00:55:01;6.70;99.90
17639;DHT22;8938;53.546;9.954;2022-11-20T00:57:27;6.70;99.90
17639;DHT22;8938;53.546;9.954;2022-11-20T00:59:52;6.70;99.90
17639;DHT22;8938;53.546;9.954;2022-11-20T01:02:18;6.70;99.90
17639;DHT22;8938;53.546;9.954;2022-11-20T01:04:43;6.70;99.90
17639;DHT22;8938;53.546;9.954;2022-11-20T01:07:09;6.60;99.90
17639;DHT22;8938;53.546;9.954;2022-11-20T01:09:35;6.60;99.90
17639;DHT22;8938;53.546;9.954;2022-11-20T01:12:00;6.50;99.90
17639;DHT22;8938;53.546;9.954;2022-11-20T01:14:26;6.50;99.90
17639;DHT22;8938;53.546;9.954;2022-11-20T01:16:52;6.50;99.90
17639;DHT22;8938;53.546;9.954;2022-11-20T01:19:20;6.50;99.90
17639;DHT22;8938;53.546;9.954;2022-11-20T01:21:49;6.50;99.90
17639;DHT22;8938;53.546;9.954;2022-11-20T01:24:16;6.50;99.90
17639;DHT22;8938;53.546;9.954;2022-11-20T01:26:44;6.60;99.90
17639;DHT22;8938;53.546;9.954;2022-11-20T01:29:17;6.60;99.90
17639;DHT22;8938;53.546;9.954;2022-11-20T01:31:43;6.60;99.90
17639;DHT22;8938;53.546;9.954;2022-11-20T01:34:12;6.60;99.90
17639;DHT22;8938;53.546;9.954;2022-11-20T01:36:40;6.60;99.90
17639;DHT22;8938;53.546;9.954;2022-11-20T01:39:09;6.60;99.90
17639;DHT22;8938;53.546;9.954;2022-11-20T01:41:35;6.60;99.90
17639;DHT22;8938;53.546;9.954;2022-11-20T01:44:22;6.50;99.90
17639;DHT22;8938;53.546;9.954;2022-11-20T01:47:08;6.60;99.90
17639;DHT22;8938;53.546;9.954;2022-11-20T01:49:38;6.60;99.90
17639;DHT22;8938;53.546;9.954;2022-11-20T01:52:31;6.60;99.90
17639;DHT22;8938;53.546;9.954;2022-11-20T01:55:04;6.50;99.90
17639;DHT22;8938;53.546;9.954;2022-11-20T01:57:31;6.50;99.90
17639;DHT22;8938;53.546;9.954;2022-11-20T02:00:04;6.60;99.90
17639;DHT22;8938;53.546;9.954;2022-11-20T02:02:30;6.50;99.90
17639;DHT22;8938;53.546;9.954;2022-11-20T02:05:02;6.60;99.90
17639;DHT22;8938;53.546;9.954;2022-11-20T02:07:30;6.60;99.90
17639;DHT22;8938;53.546;9.954;2022-11-20T02:09:56;6.60;99.90
17639;DHT22;8938;53.546;9.954;2022-11-20T02:12:21;6.60;99.90
17639;DHT22;8938;53.546;9.954;2022-11-20T02:15:05;6.60;99.90
17639;DHT22;8938;53.546;9.954;2022-11-20T02:17:31;6.70;99.90
17639;DHT22;8938;53.546;9.954;2022-11-20T02:19:56;6.70;99.90
17639;DHT22;8938;53.546;9.954;2022-11-20T02:22:36;6.70;99.90
17639;DHT22;8938;53.546;9.954;2022-11-20T02:25:03;6.70;99.90
17639;DHT22;8938;53.546;9.954;2022-11-20T02:27:30;6.70;99.90
17639;DHT22;8938;53.546;9.954;2022-11-20T02:30:04;6.70;99.90
17639;DHT22;8938;53.546;9.954;2022-11-20T02:32:35;6.70;99.90
17639;DHT22;8938;53.546;9.954;2022-11-20T02:35:09;6.70;99.90
17639;DHT22;8938;53.546;9.954;2022-11-20T02:37:37;6.60;99.90
17639;DHT22;8938;53.546;9.954;2022-11-20T02:40:04;6.50;99.90
17639;DHT22;8938;53.546;9.954;2022-11-20T02:42:30;6.60;99.90
17639;DHT22;8938;53.546;9.954;2022-11-20T02:44:55;6.60;99.90
17639;DHT22;8938;53.546;9.954;2022-11-20T02:47:21;6.70;99.90
17639;DHT22;8938;53.546;9.954;2022-11-20T02:49:46;6.70;99.90
17639;DHT22;8938;53.546;9.954;2022-11-20T02:52:12;6.70;99.90
17639;DHT22;8938;53.546;9.954;2022-11-20T02:54:37;6.80;99.90
17639;DHT22;8938;53.546;9.954;2022-11-20T02:57:03;6.70;99.90
17639;DHT22;8938;53.546;9.954;2022-11-20T02:59:28;6.70;99.90
17639;DHT22;8938;53.546;9.954;2022-11-20T03:01:54;6.70;99.90
17639;DHT22;8938;53.546;9.954;2022-11-20T03:04:19;6.80;99.90
17639;DHT22;8938;53.546;9.954;2022-11-20T03:06:45;6.80;99.90
17639;DHT22;8938;53.546;9.954;2022-11-20T03:09:10;6.80;99.90
17639;DHT22;8938;53.546;9.954;2022-11-20T03:11:36;6.80;99.90
17639;DHT22;8938;53.546;9.954;2022-11-20T03:14:03;6.80;99.90
17639;DHT22;8938;53.546;9.954;2022-11-20T03:16:30;6.70;99.90
17639;DHT22;8938;53.546;9.954;2022-11-20T03:18:55;6.80;99.90
17639;DHT22;8938;53.546;9.954;2022-11-20T03:21:21;6.70;99.90
17639;DHT22;8938;53.546;9.954;2022-11-20T03:23:47;6.70;99.90
17639;DHT22;8938;53.546;9.954;2022-11-20T03:26:15;6.60;99.90
17639;DHT22;8938;53.546;9.954;2022-11-20T03:28:46;6.60;99.90
17639;DHT22;8938;53.546;9.954;2022-11-20T03:31:13;6.60;99.90
17639;DHT22;8938;53.546;9.954;2022-11-20T03:33:40;6.60;99.90
17639;DHT22;8938;53.546;9.954;2022-11-20T03:36:09;6.70;99.90
17639;DHT22;8938;53.546;9.954;2022-11-20T03:38:35;6.60;99.90
17639;DHT22;8938;53.546;9.954;2022-11-20T03:41:03;6.60;99.90
17639;DHT22;8938;53.546;9.954;2022-11-20T03:43:29;6.60;99.90
17639;DHT22;8938;53.546;9.954;2022-11-20T03:45:55;6.60;99.90
17639;DHT22;8938;53.546;9.954;2022-11-20T03:48:21;6.60;99.90
17639;DHT22;8938;53.546;9.954;2022-11-20T03:50:46;6.60;99.90
17639;DHT22;8938;53.546;9.954;2022-11-20T03:53:13;6.60;99.90
17639;DHT22;8938;53.546;9.954;2022-11-20T03:55:39;6.60;99.90
17639;DHT22;8938;53.546;9.954;2022-11-20T03:58:04;6.50;99.90
17639;DHT22;8938;53.546;9.954;2022-11-20T04:00:30;6.50;99.90
17639;DHT22;8938;53.546;9.954;2022-11-20T04:02:59;6.50;99.90
17639;DHT22;8938;53.546;9.954;2022-11-20T04:05:25;6.50;99.90
17639;DHT22;8938;53.546;9.954;2022-11-20T04:07:50;6.50;99.90
17639;DHT22;8938;53.546;9.954;2022-11-20T04:10:16;6.50;99.90
17639;DHT22;8938;53.546;9.954;2022-11-20T04:12:42;6.40;99.90
17639;DHT22;8938;53.546;9.954;2022-11-20T04:15:08;6.40;99.90
17639;DHT22;8938;53.546;9.954;2022-11-20T04:17:34;6.50;99.90
17639;DHT22;8938;53.546;9.954;2022-11-20T04:19:59;6.50;99.90
17639;DHT22;8938;53.546;9.954;2022-11-20T04:22:25;6.60;99.90
17639;DHT22;8938;53.546;9.954;2022-11-20T04:24:50;6.50;99.90
17639;DHT22;8938;53.546;9.954;2022-11-20T04:27:16;6.50;99.90
17639;DHT22;8938;53.546;9.954;2022-11-20T04:29:41;6.60;99.90
17639;DHT22;8938;53.546;9.954;2022-11-20T04:32:07;6.50;99.90
17639;DHT22;8938;53.546;9.954;2022-11-20T04:34:33;6.50;99.90
17639;DHT22;8938;53.546;9.954;2022-11-20T04:36:58;6.40;99.90
17639;DHT22;8938;53.546;9.954;2022-11-20T04:39:24;6.40;99.90
17639;DHT22;8938;53.546;9.954;2022-11-20T04:41:49;6.50;99.90
17639;DHT22;8938;53.546;9.954;2022-11-20T04:44:35;6.40;99.90
17639;DHT22;8938;53.546;9.954;2022-11-20T04:47:00;6.40;99.90
17639;DHT22;8938;53.546;9.954;2022-11-20T04:49:25;6.40;99.90
17639;DHT22;8938;53.546;9.954;2022-11-20T04:51:53;6.40;99.90
17639;DHT22;8938;53.546;9.954;2022-11-20T04:54:19;6.40;99.90
17639;DHT22;8938;53.546;9.954;2022-11-20T04:56:47;6.40;99.90
17639;DHT22;8938;53.546;9.954;2022-11-20T04:59:13;6.40;99.90
17639;DHT22;8938;53.546;9.954;2022-11-20T05:01:38;6.50;99.90
17639;DHT22;8938;53.546;9.954;2022-11-20T05:04:04;6.40;99.90
17639;DHT22;8938;53.546;9.954;2022-11-20T05:06:31;6.40;99.90
17639;DHT22;8938;53.546;9.954;2022-11-20T05:08:56;6.40;99.90
17639;DHT22;8938;53.546;9.954;2022-11-20T05:11:22;6.30;99.90
17639;DHT22;8938;53.546;9.954;2022-11-20T05:13:49;6.30;99.90
17639;DHT22;8938;53.546;9.954;2022-11-20T05:16:19;6.30;99.90
17639;DHT22;8938;53.546;9.954;2022-11-20T05:18:45;6.30;99.90
17639;DHT22;8938;53.546;9.954;2022-11-20T05:21:12;6.30;99.90
17639;DHT22;8938;53.546;9.954;2022-11-20T05:23:38;6.40;99.90
17639;DHT22;8938;53.546;9.954;2022-11-20T05:26:04;6.40;99.90
17639;DHT22;8938;53.546;9.954;2022-11-20T05:28:31;6.30;99.90
17639;DHT22;8938;53.546;9.954;2022-11-20T05:31:05;6.40;99.90
17639;DHT22;8938;53.546;9.954;2022-11-20T05:33:31;6.50;99.90
17639;DHT22;8938;53.546;9.954;2022-11-20T05:35:59;6.50;99.90
17639;DHT22;8938;53.546;9.954;2022-11-20T05:38:25;6.40;99.90
17639;DHT22;8938;53.546;9.954;2022-11-20T05:40:50;6.40;99.90
17639;DHT22;8938;53.546;9.954;2022-11-20T05:43:16;6.30;99.90
17639;DHT22;8938;53.546;9.954;2022-11-20T05:45:41;6.30;99.90
17639;DHT22;8938;53.546;9.954;2022-11-20T05:48:07;6.30;99.90
17639;DHT22;8938;53.546;9.954;2022-11-20T05:50:32;6.20;99.90
17639;DHT22;8938;53.546;9.954;2022-11-20T05:52:59;6.10;99.90
17639;DHT22;8938;53.546;9.954;2022-11-20T05:55:26;6.20;99.90
17639;DHT22;8938;53.546;9.954;2022-11-20T05:57:53;6.10;99.90
17639;DHT22;8938;53.546;9.954;2022-11-20T06:00:19;6.10;99.90
17639;DHT22;8938;53.546;9.954;2022-11-20T06:02:44;6.00;99.90
17639;DHT22;8938;53.546;9.954;2022-11-20T06:05:10;6.00;99.90
17639;DHT22;8938;53.546;9.954;2022-11-20T06:07:36;6.00;99.90
17639;DHT22;8938;53.546;9.954;2022-11-20T06:10:01;6.10;99.90
17639;DHT22;8938;53.546;9.954;2022-11-20T06:12:27;6.10;99.90
17639;DHT22;8938;53.546;9.954;2022-11-20T06:14:52;6.00;99.90
17639;DHT22;8938;53.546;9.954;2022-11-20T06:17:18;6.00;99.90
17639;DHT22;8938;53.546;9.954;2022-11-20T06:19:43;6.00;99.90
17639;DHT22;8938;53.546;9.954;2022-11-20T06:22:09;6.00;99.90
17639;DHT22;8938;53.546;9.954;2022-11-20T06:24:34;5.90;99.90
17639;DHT22;8938;53.546;9.954;2022-11-20T06:27:00;6.00;99.90
17639;DHT22;8938;53.546;9.954;2022-11-20T06:29:25;6.00;99.90
17639;DHT22;8938;53.546;9.954;2022-11-20T06:31:51;6.00;99.90
17639;DHT22;8938;53.546;9.954;2022-11-20T06:34:16;6.00;99.90
17639;DHT22;8938;53.546;9.954;2022-11-20T06:36:42;6.00;99.90
17639;DHT22;8938;53.546;9.954;2022-11-20T06:39:07;6.00;99.90
17639;DHT22;8938;53.546;9.954;2022-11-20T06:41:33;6.00;99.90
17639;DHT22;8938;53.546;9.954;2022-11-20T06:43:58;5.90;99.90
17639;DHT22;8938;53.546;9.954;2022-11-20T06:46:24;5.80;99.90
17639;DHT22;8938;53.546;9.954;2022-11-20T06:48:49;5.70;99.90
17639;DHT22;8938;53.546;9.954;2022-11-20T06:51:15;5.80;99.90
17639;DHT22;8938;53.546;9.954;2022-11-20T06:53:41;5.80;99.90
17639;DHT22;8938;53.546;9.954;2022-11-20T06:56:07;5.80;99.90
17639;DHT22;8938;53.546;9.954;2022-11-20T06:58:33;5.80;99.90
17639;DHT22;8938;53.546;9.954;2022-11-20T07:01:00;5.80;99.90
17639;DHT22;8938;53.546;9.954;2022-11-20T07:03:25;5.90;99.90
17639;DHT22;8938;53.546;9.954;2022-11-20T07:05:51;5.80;99.90
17639;DHT22;8938;53.546;9.954;2022-11-20T07:08:16;5.80;99.90
17639;DHT22;8938;53.546;9.954;2022-11-20T07:10:42;5.80;99.90
17639;DHT22;8938;53.546;9.954;2022-11-20T07:13:07;5.80;99.90
17639;DHT22;8938;53.546;9.954;2022-11-20T07:15:33;5.80;99.90
17639;DHT22;8938;53.546;9.954;2022-11-20T07:17:59;5.90;99.90
17639;DHT22;8938;53.546;9.954;2022-11-20T07:20:25;5.90;99.90
17639;DHT22;8938;53.546;9.954;2022-11-20T07:22:55;5.90;99.90
17639;DHT22;8938;53.546;9.954;2022-11-20T07:25:21;5.90;99.90
17639;DHT22;8938;53.546;9.954;2022-11-20T07:27:47;5.80;99.90
17639;DHT22;8938;53.546;9.954;2022-11-20T07:30:13;5.80;99.90
17639;DHT22;8938;53.546;9.954;2022-11-20T07:32:39;5.90;99.90
17639;DHT22;8938;53.546;9.954;2022-11-20T07:35:05;5.90;99.90
17639;DHT22;8938;53.546;9.954;2022-11-20T07:37:30;6.00;99.90
17639;DHT22;8938;53.546;9.954;2022-11-20T07:39:58;6.00;99.90
17639;DHT22;8938;53.546;9.954;2022-11-20T07:42:24;5.90;99.90
17639;DHT22;8938;53.546;9.954;2022-11-20T07:44:49;6.00;99.90
17639;DHT22;8938;53.546;9.954;2022-11-20T07:47:15;6.00;99.90
17639;DHT22;8938;53.546;9.954;2022-11-20T07:49:40;6.00;99.90
17639;DHT22;8938;53.546;9.954;2022-11-20T07:52:06;6.10;99.90
17639;DHT22;8938;53.546;9.954;2022-11-20T07:54:31;6.10;99.90
17639;DHT22;8938;53.546;9.954;2022-11-20T07:56:57;6.20;99.90
17639;DHT22;8938;53.546;9.954;2022-11-20T07:59:22;6.20;99.90
17639;DHT22;8938;53.546;9.954;2022-11-20T08:01:48;6.20;99.90
17639;DHT22;8938;53.546;9.954;2022-11-20T08:04:14;6.20;99.90
17639;DHT22;8938;53.546;9.954;2022-11-20T08:06:41;6.10;99.90
17639;DHT22;8938;53.546;9.954;2022-11-20T08:09:07;6.00;99.90
17639;DHT22;8938;53.546;9.954;2022-11-20T08:11:32;6.10;99.90
17639;DHT22;8938;53.546;9.954;2022-11-20T08:14:16;6.10;99.90
17639;DHT22;8938;53.546;9.954;2022-11-20T08:16:46;6.10;99.90
17639;DHT22;8938;53.546;9.954;2022-11-20T08:19:13;6.10;99.90
17639;DHT22;8938;53.546;9.954;2022-11-20T08:21:40;6.10;99.90
17639;DHT22;8938;53.546;9.954;2022-11-20T08:24:06;6.10;99.90
17639;DHT22;8938;53.546;9.954;2022-11-20T08:26:32;6.10;99.90
17639;DHT22;8938;53.546;9.954;2022-11-20T08:28:58;6.10;99.90
17639;DHT22;8938;53.546;9.954;2022-11-20T08:31:25;6.20;99.90
17639;DHT22;8938;53.546;9.954;2022-11-20T08:33:51;6.20;99.90
17639;DHT22;8938;53.546;9.954;2022-11-20T08:36:17;6.20;99.90
17639;DHT22;8938;53.546;9.954;2022-11-20T08:38:47;6.30;99.90
17639;DHT22;8938;53.546;9.954;2022-11-20T08:41:13;6.40;99.90
17639;DHT22;8938;53.546;9.954;2022-11-20T08:46:20;6.40;99.90
17639;DHT22;8938;53.546;9.954;2022-11-20T08:48:46;6.40;99.90
17639;DHT22;8938;53.546;9.954;2022-11-20T08:51:12;6.40;99.90
17639;DHT22;8938;53.546;9.954;2022-11-20T08:53:39;6.40;99.90
17639;DHT22;8938;53.546;9.954;2022-11-20T08:56:04;6.50;99.90
17639;DHT22;8938;53.546;9.954;2022-11-20T08:58:30;6.50;99.90
17639;DHT22;8938;53.546;9.954;2022-11-20T09:00:56;6.50;99.90
17639;DHT22;8938;53.546;9.954;2022-11-20T09:03:22;6.60;99.90
17639;DHT22;8938;53.546;9.954;2022-11-20T09:05:47;6.70;99.90
17639;DHT22;8938;53.546;9.954;2022-11-20T09:08:13;6.60;99.90
17639;DHT22;8938;53.546;9.954;2022-11-20T09:10:38;6.60;99.90
17639;DHT22;8938;53.546;9.954;2022-11-20T09:13:05;6.70;99.90
17639;DHT22;8938;53.546;9.954;2022-11-20T09:15:31;6.70;99.90
17639;DHT22;8938;53.546;9.954;2022-11-20T09:18:00;6.80;99.90
17639;DHT22;8938;53.546;9.954;2022-11-20T09:20:27;6.80;99.90
17639;DHT22;8938;53.546;9.954;2022-11-20T09:22:54;6.80;99.90
17639;DHT22;8938;53.546;9.954;2022-11-20T09:25:20;6.90;99.90
17639;DHT22;8938;53.546;9.954;2022-11-20T09:27:46;6.90;99.90
17639;DHT22;8938;53.546;9.954;2022-11-20T09:30:13;7.00;99.90
17639;DHT22;8938;53.546;9.954;2022-11-20T09:32:40;6.90;99.90
17639;DHT22;8938;53.546;9.954;2022-11-20T09:35:05;6.90;99.90
17639;DHT22;8938;53.546;9.954;2022-11-20T09:37:31;6.80;99.90
17639;DHT22;8938;53.546;9.954;2022-11-20T09:39:57;6.80;99.90
17639;DHT22;8938;53.546;9.954;2022-11-20T09:45:15;6.70;99.90
17639;DHT22;8938;53.546;9.954;2022-11-20T09:50:45;6.50;99.90
17639;DHT22;8938;53.546;9.954;2022-11-20T09:54:20;6.40;99.90
17639;DHT22;8938;53.546;9.954;2022-11-20T09:56:21;6.50;99.90
17639;DHT22;8938;53.546;9.954;2022-11-20T09:58:55;6.50;99.90
17639;DHT22;8938;53.546;9.954;2022-11-20T10:01:26;6.50;99.90
17639;DHT22;8938;53.546;9.954;2022-11-20T10:04:06;6.60;99.90
17639;DHT22;8938;53.546;9.954;2022-11-20T10:06:56;6.70;99.90
17639;DHT22;8938;53.546;9.954;2022-11-20T10:09:36;6.80;99.90
17639;DHT22;8938;53.546;9.954;2022-11-20T10:15:14;7.10;99.90
17639;DHT22;8938;53.546;9.954;2022-11-20T10:18:04;7.20;99.90
17639;DHT22;8938;53.546;9.954;2022-11-20T10:26:02;7.50;99.90
17639;DHT22;8938;53.546;9.954;2022-11-20T10:28:56;7.50;99.90
17639;DHT22;8938;53.546;9.954;2022-11-20T10:31:32;7.50;99.90
17639;DHT22;8938;53.546;9.954;2022-11-20T10:34:03;7.40;99.90
17639;DHT22;8938;53.546;9.954;2022-11-20T10:36:35;7.40;99.90
17639;DHT22;8938;53.546;9.954;2022-11-20T10:39:07;7.40;99.90
17639;DHT22;8938;53.546;9.954;2022-11-20T10:41:40;7.40;99.90
17639;DHT22;8938;53.546;9.954;2022-11-20T10:44:14;7.50;99.90
17639;DHT22;8938;53.546;9.954;2022-11-20T10:46:44;7.50;99.90
17639;DHT22;8938;53.546;9.954;2022-11-20T10:49:14;7.40;99.90
17639;DHT22;8938;53.546;9.954;2022-11-20T10:52:00;7.40;99.90
17639;DHT22;8938;53.546;9.954;2022-11-20T11:00:38;7.20;99.90
17639;DHT22;8938;53.546;9.954;2022-11-20T11:03:28;7.30;99.90
17639;DHT22;8938;53.546;9.954;2022-11-20T11:06:03;7.20;99.90
17639;DHT22;8938;53.546;9.954;2022-11-20T11:08:36;7.20;99.90
17639;DHT22;8938;53.546;9.954;2022-11-20T11:11:13;7.20;99.90
17639;DHT22;8938;53.546;9.954;2022-11-20T11:13:43;7.20;99.90
17639;DHT22;8938;53.546;9.954;2022-11-20T11:16:23;7.20;99.90
17639;DHT22;8938;53.546;9.954;2022-11-20T11:18:50;7.20;99.90
17639;DHT22;8938;53.546;9.954;2022-11-20T11:21:25;7.40;99.90
17639;DHT22;8938;53.546;9.954;2022-11-20T11:24:19;7.40;99.90
17639;DHT22;8938;53.546;9.954;2022-11-20T11:27:03;7.30;99.90
17639;DHT22;8938;53.546;9.954;2022-11-20T11:29:30;7.20;99.90
17639;DHT22;8938;53.546;9.954;2022-11-20T11:32:08;7.10;99.90
17639;DHT22;8938;53.546;9.954;2022-11-20T11:34:34;7.10;99.90
17639;DHT22;8938;53.546;9.954;2022-11-20T11:37:00;7.10;99.90
17639;DHT22;8938;53.546;9.954;2022-11-20T11:39:29;7.10;99.90
17639;DHT22;8938;53.546;9.954;2022-11-20T11:41:55;7.10;99.90
17639;DHT22;8938;53.546;9.954;2022-11-20T11:44:27;7.10;99.90
17639;DHT22;8938;53.546;9.954;2022-11-20T11:50:00;7.20;99.90
17639;DHT22;8938;53.546;9.954;2022-11-20T11:52:26;7.10;99.90
17639;DHT22;8938;53.546;9.954;2022-11-20T11:54:58;7.10;99.90
17639;DHT22;8938;53.546;9.954;2022-11-20T11:57:47;7.10;99.90
17639;DHT22;8938;53.546;9.954;2022-11-20T12:00:20;7.10;99.90
17639;DHT22;8938;53.546;9.954;2022-11-20T12:08:02;7.20;99.90
17639;DHT22;8938;53.546;9.954;2022-11-20T12:15:47;7.30;99.90
17639;DHT22;8938;53.546;9.954;2022-11-20T12:18:16;7.30;99.90
17639;DHT22;8938;53.546;9.954;2022-11-20T12:20:50;7.30;99.90
17639;DHT22;8938;53.546;9.954;2022-11-20T12:23:28;7.50;99.90
17639;DHT22;8938;53.546;9.954;2022-11-20T12:26:00;7.60;99.90
17639;DHT22;8938;53.546;9.954;2022-11-20T12:32:05;7.60;99.90
17639;DHT22;8938;53.546;9.954;2022-11-20T12:40:17;7.70;99.90
17639;DHT22;8938;53.546;9.954;2022-11-20T12:42:50;7.60;99.90
17639;DHT22;8938;53.546;9.954;2022-11-20T12:45:42;7.60;99.90
17639;DHT22;8938;53.546;9.954;2022-11-20T12:48:42;7.60;99.90
17639;DHT22;8938;53.546;9.954;2022-11-20T12:54:38;7.60;99.90
17639;DHT22;8938;53.546;9.954;2022-11-20T13:00:22;7.70;99.90
17639;DHT22;8938;53.546;9.954;2022-11-20T13:08:36;7.90;99.90
17639;DHT22;8938;53.546;9.954;2022-11-20T13:11:41;7.90;99.90
17639;DHT22;8938;53.546;9.954;2022-11-20T13:16:48;7.90;99.90
17639;DHT22;8938;53.546;9.954;2022-11-20T13:19:16;7.90;99.90
17639;DHT22;8938;53.546;9.954;2022-11-20T13:21:44;7.90;99.90
17639;DHT22;8938;53.546;9.954;2022-11-20T13:27:00;7.80;99.90
17639;DHT22;8938;53.546;9.954;2022-11-20T13:29:26;7.80;99.90
17639;DHT22;8938;53.546;9.954;2022-11-20T13:32:00;7.90;99.90
17639;DHT22;8938;53.546;9.954;2022-11-20T13:34:27;7.90;99.90
17639;DHT22;8938;53.546;9.954;2022-11-20T13:36:55;7.90;99.90
17639;DHT22;8938;53.546;9.954;2022-11-20T13:39:25;7.90;99.90
17639;DHT22;8938;53.546;9.954;2022-11-20T13:42:43;7.90;99.90
17639;DHT22;8938;53.546;9.954;2022-11-20T13:44:52;7.90;99.90
17639;DHT22;8938;53.546;9.954;2022-11-20T13:47:27;7.90;99.90
17639;DHT22;8938;53.546;9.954;2022-11-20T13:49:55;7.90;99.90
17639;DHT22;8938;53.546;9.954;2022-11-20T13:57:53;7.80;99.90
17639;DHT22;8938;53.546;9.954;2022-11-20T14:00:23;7.90;99.90
17639;DHT22;8938;53.546;9.954;2022-11-20T14:06:01;7.80;99.90
17639;DHT22;8938;53.546;9.954;2022-11-20T14:08:38;7.80;99.90
17639;DHT22;8938;53.546;9.954;2022-11-20T14:11:16;7.80;99.90
17639;DHT22;8938;53.546;9.954;2022-11-20T14:14:00;7.80;99.90
17639;DHT22;8938;53.546;9.954;2022-11-20T14:16:28;7.80;99.90
17639;DHT22;8938;53.546;9.954;2022-11-20T14:18:55;7.70;99.90
17639;DHT22;8938;53.546;9.954;2022-11-20T14:21:39;7.80;99.90
17639;DHT22;8938;53.546;9.954;2022-11-20T14:24:05;7.80;99.90
17639;DHT22;8938;53.546;9.954;2022-11-20T14:26:32;7.60;99.90
17639;DHT22;8938;53.546;9.954;2022-11-20T14:28:58;7.60;99.90
17639;DHT22;8938;53.546;9.954;2022-11-20T14:31:26;7.60;99.90
17639;DHT22;8938;53.546;9.954;2022-11-20T14:33:53;7.70;99.90
17639;DHT22;8938;53.546;9.954;2022-11-20T14:36:21;7.60;99.90
17639;DHT22;8938;53.546;9.954;2022-11-20T14:38:47;7.60;99.90
17639;DHT22;8938;53.546;9.954;2022-11-20T14:41:19;7.50;99.90
17639;DHT22;8938;53.546;9.954;2022-11-20T14:44:08;7.50;99.90
17639;DHT22;8938;53.546;9.954;2022-11-20T14:46:32;7.60;99.90
17639;DHT22;8938;53.546;9.954;2022-11-20T14:49:01;7.70;99.90
17639;DHT22;8938;53.546;9.954;2022-11-20T14:51:34;7.80;99.90
17639;DHT22;8938;53.546;9.954;2022-11-20T14:54:15;7.70;99.90
17639;DHT22;8938;53.546;9.954;2022-11-20T14:56:41;7.70;99.90
17639;DHT22;8938;53.546;9.954;2022-11-20T14:59:08;7.70;99.90
17639;DHT22;8938;53.546;9.954;2022-11-20T15:01:34;7.70;99.90
17639;DHT22;8938;53.546;9.954;2022-11-20T15:04:10;7.70;99.90
17639;DHT22;8938;53.546;9.954;2022-11-20T15:06:37;7.70;99.90
17639;DHT22;8938;53.546;9.954;2022-11-20T15:09:04;7.70;99.90
17639;DHT22;8938;53.546;9.954;2022-11-20T15:14:06;7.70;99.90
17639;DHT22;8938;53.546;9.954;2022-11-20T15:16:32;7.70;99.90
17639;DHT22;8938;53.546;9.954;2022-11-20T15:18:58;7.60;99.90
17639;DHT22;8938;53.546;9.954;2022-11-20T15:21:24;7.50;99.90
17639;DHT22;8938;53.546;9.954;2022-11-20T15:23:49;7.40;99.90
17639;DHT22;8938;53.546;9.954;2022-11-20T15:26:24;7.30;99.90
17639;DHT22;8938;53.546;9.954;2022-11-20T15:28:51;7.30;99.90
17639;DHT22;8938;53.546;9.954;2022-11-20T15:31:20;7.20;99.90
17639;DHT22;8938;53.546;9.954;2022-11-20T15:33:46;7.20;99.90
17639;DHT22;8938;53.546;9.954;2022-11-20T15:36:11;7.10;99.90
17639;DHT22;8938;53.546;9.954;2022-11-20T15:38:37;7.20;99.90
17639;DHT22;8938;53.546;9.954;2022-11-20T15:41:03;7.20;99.90
17639;DHT22;8938;53.546;9.954;2022-11-20T15:43:29;7.20;99.90
17639;DHT22;8938;53.546;9.954;2022-11-20T15:45:59;7.30;99.90
17639;DHT22;8938;53.546;9.954;2022-11-20T15:48:29;7.20;99.90
17639;DHT22;8938;53.546;9.954;2022-11-20T15:53:40;7.20;99.90
17639;DHT22;8938;53.546;9.954;2022-11-20T15:56:07;7.20;99.90
17639;DHT22;8938;53.546;9.954;2022-11-20T15:58:34;7.20;99.90
17639;DHT22;8938;53.546;9.954;2022-11-20T16:01:00;7.20;99.90
17639;DHT22;8938;53.546;9.954;2022-11-20T16:03:25;7.20;99.90
17639;DHT22;8938;53.546;9.954;2022-11-20T16:05:51;7.20;99.90
17639;DHT22;8938;53.546;9.954;2022-11-20T16:08:16;7.30;99.90
17639;DHT22;8938;53.546;9.954;2022-11-20T16:10:42;7.30;99.90
17639;DHT22;8938;53.546;9.954;2022-11-20T16:13:16;7.40;99.90
17639;DHT22;8938;53.546;9.954;2022-11-20T16:16:03;7.50;99.90
17639;DHT22;8938;53.546;9.954;2022-11-20T16:18:30;7.50;99.90
17639;DHT22;8938;53.546;9.954;2022-11-20T16:20:56;7.50;99.90
17639;DHT22;8938;53.546;9.954;2022-11-20T16:23:22;7.50;99.90
17639;DHT22;8938;53.546;9.954;2022-11-20T16:25:48;7.50;99.90
17639;DHT22;8938;53.546;9.954;2022-11-20T16:28:14;7.60;99.90
17639;DHT22;8938;53.546;9.954;2022-11-20T16:30:40;7.60;99.90
17639;DHT22;8938;53.546;9.954;2022-11-20T16:33:11;7.60;99.90
17639;DHT22;8938;53.546;9.954;2022-11-20T16:35:39;7.60;99.90
17639;DHT22;8938;53.546;9.954;2022-11-20T16:38:05;7.70;99.90
17639;DHT22;8938;53.546;9.954;2022-11-20T16:40:30;7.60;99.90
17639;DHT22;8938;53.546;9.954;2022-11-20T16:42:56;7.80;99.90
17639;DHT22;8938;53.546;9.954;2022-11-20T16:45:22;7.70;99.90
17639;DHT22;8938;53.546;9.954;2022-11-20T16:47:48;7.70;99.90
17639;DHT22;8938;53.546;9.954;2022-11-20T16:50:14;7.80;99.90
17639;DHT22;8938;53.546;9.954;2022-11-20T16:52:39;7.70;99.90
17639;DHT22;8938;53.546;9.954;2022-11-20T16:55:05;7.70;99.90
17639;DHT22;8938;53.546;9.954;2022-11-20T16:57:31;7.70;99.90
17639;DHT22;8938;53.546;9.954;2022-11-20T17:00:00;7.70;99.90
17639;DHT22;8938;53.546;9.954;2022-11-20T17:02:26;7.70;99.90
17639;DHT22;8938;53.546;9.954;2022-11-20T17:04:51;7.60;99.90
17639;DHT22;8938;53.546;9.954;2022-11-20T17:07:17;7.60;99.90
17639;DHT22;8938;53.546;9.954;2022-11-20T17:09:43;7.60;99.90
17639;DHT22;8938;53.546;9.954;2022-11-20T17:12:08;7.60;99.90
17639;DHT22;8938;53.546;9.954;2022-11-20T17:14:34;7.60;99.90
17639;DHT22;8938;53.546;9.954;2022-11-20T17:17:00;7.60;99.90
17639;DHT22;8938;53.546;9.954;2022-11-20T17:19:25;7.60;99.90
17639;DHT22;8938;53.546;9.954;2022-11-20T17:21:51;7.60;99.90
17639;DHT22;8938;53.546;9.954;2022-11-20T17:24:17;7.60;99.90
17639;DHT22;8938;53.546;9.954;2022-11-20T17:26:43;7.70;99.90
17639;DHT22;8938;53.546;9.954;2022-11-20T17:29:17;7.70;99.90